sensor_id;sensor_type;location;lat;lon;timestamp;noise_LAeq;noise_LA_min;noise_LA_max;noise_LA01;noise_LA95
66449;Laerm;56828;52.294;4.666;2022-12-18T00:00:02;37.21;32.74;44.61;;
66449;Laerm;56828;52.294;4.666;2022-12-18T00:00:13;37.03;33.61;46.44;;
66449;Laerm;56828;52.294;4.666;2022-12-18T00:00:23;39.80;34.50;47.33;;
66449;Laerm;56828;52.294;4.666;2022-12-18T00:00:38;36.11;33.84;41.12;;
66449;Laerm;56828;52.294;4.666;2022-12-18T00:00:49;41.82;33.11;50.52;;
66449;Laerm;56828;52.294;4.666;2022-12-18T00:00:59;42.90;32.97;54.58;;
66449;Laerm;56828;52.294;4.666;2022-12-18T00:01:17;46.09;33.00;61.95;;
66449;Laerm;56828;52.294;4.666;2022-12-18T00:01:32;40.35;32.51;53.27;;
66449;Laerm;56828;52.294;4.666;2022-12-18T00:01:43;38.77;32.82;48.79;;
66449;Laerm;56828;52.294;4.666;2022-12-18T00:01:57;36.20;33.77;42.53;;
66449;Laerm;56828;52.294;4.666;2022-12-18T00:02:12;38.36;35.39;48.10;;
66449;Laerm;56828;52.294;4.666;2022-12-18T00:02:22;37.38;33.18;43.62;;
66449;Laerm;56828;52.294;4.666;2022-12-18T00:02:32;39.47;35.14;43.59;;
66449;Laerm;56828;52.294;4.666;2022-12-18T00:02:43;41.22;35.45;52.87;;
66449;Laerm;56828;52.294;4.666;2022-12-18T00:02:58;40.10;34.61;51.64;;
66449;Laerm;56828;52.294;4.666;2022-12-18T00:03:09;38.41;34.49;51.26;;
66449;Laerm;56828;52.294;4.666;2022-12-18T00:03:19;36.94;33.63;43.13;;
66449;Laerm;56828;52.294;4.666;2022-12-18T00:03:30;35.61;33.27;41.39;;
66449;Laerm;56828;52.294;4.666;2022-12-18T00:03:40;37.48;33.67;43.71;;
66449;Laerm;56828;52.294;4.666;2022-12-18T00:03:51;38.16;34.19;45.28;;
66449;Laerm;56828;52.294;4.666;2022-12-18T00:04:05;35.07;32.99;38.22;;
66449;Laerm;56828;52.294;4.666;2022-12-18T00:04:20;39.18;34.03;54.36;;
66449;Laerm;56828;52.294;4.666;2022-12-18T00:04:30;39.47;34.27;47.42;;
66449;Laerm;56828;52.294;4.666;2022-12-18T00:04:41;35.88;34.13;37.92;;
66449;Laerm;56828;52.294;4.666;2022-12-18T00:04:51;36.40;33.34;40.98;;
66449;Laerm;56828;52.294;4.666;2022-12-18T00:05:04;36.75;34.24;42.92;;
66449;Laerm;56828;52.294;4.666;2022-12-18T00:05:14;35.42;33.04;39.29;;
66449;Laerm;56828;52.294;4.666;2022-12-18T00:05:25;33.48;31.84;35.13;;
66449;Laerm;56828;52.294;4.666;2022-12-18T00:05:45;36.22;32.73;38.64;;
66449;Laerm;56828;52.294;4.666;2022-12-18T00:05:55;39.80;35.71;47.25;;
66449;Laerm;56828;52.294;4.666;2022-12-18T00:06:05;42.78;36.31;51.87;;
66449;Laerm;56828;52.294;4.666;2022-12-18T00:06:18;49.62;41.25;63.58;;
66449;Laerm;56828;52.294;4.666;2022-12-18T00:06:29;54.84;48.34;65.05;;
66449;Laerm;56828;52.294;4.666;2022-12-18T00:06:42;67.01;50.59;76.62;;
66449;Laerm;56828;52.294;4.666;2022-12-18T00:06:53;69.76;59.22;74.57;;
66449;Laerm;56828;52.294;4.666;2022-12-18T00:07:03;63.43;55.50;69.90;;
66449;Laerm;56828;52.294;4.666;2022-12-18T00:07:14;59.53;53.27;64.63;;
66449;Laerm;56828;52.294;4.666;2022-12-18T00:07:24;53.70;41.52;62.25;;
66449;Laerm;56828;52.294;4.666;2022-12-18T00:07:35;51.15;41.88;58.30;;
66449;Laerm;56828;52.294;4.666;2022-12-18T00:07:45;45.77;40.46;52.06;;
66449;Laerm;56828;52.294;4.666;2022-12-18T00:07:55;43.62;36.39;49.14;;
66449;Laerm;56828;52.294;4.666;2022-12-18T00:08:05;44.18;38.14;48.23;;
66449;Laerm;56828;52.294;4.666;2022-12-18T00:08:23;40.42;34.80;47.62;;
66449;Laerm;56828;52.294;4.666;2022-12-18T00:08:35;36.75;33.91;41.12;;
66449;Laerm;56828;52.294;4.666;2022-12-18T00:08:46;36.79;33.81;47.31;;
66449;Laerm;56828;52.294;4.666;2022-12-18T00:08:57;39.26;34.85;46.68;;
66449;Laerm;56828;52.294;4.666;2022-12-18T00:09:08;44.50;35.26;56.37;;
66449;Laerm;56828;52.294;4.666;2022-12-18T00:09:18;45.81;33.59;58.40;;
66449;Laerm;56828;52.294;4.666;2022-12-18T00:09:29;37.35;33.47;41.12;;
66449;Laerm;56828;52.294;4.666;2022-12-18T00:09:39;39.63;34.69;45.38;;
66449;Laerm;56828;52.294;4.666;2022-12-18T00:09:49;36.06;33.01;45.72;;
66449;Laerm;56828;52.294;4.666;2022-12-18T00:10:03;35.65;32.48;40.23;;
66449;Laerm;56828;52.294;4.666;2022-12-18T00:10:19;37.74;33.11;48.33;;
66449;Laerm;56828;52.294;4.666;2022-12-18T00:10:32;34.25;31.94;38.90;;
66449;Laerm;56828;52.294;4.666;2022-12-18T00:10:43;34.36;32.33;38.30;;
66449;Laerm;56828;52.294;4.666;2022-12-18T00:10:53;38.73;32.45;53.96;;
66449;Laerm;56828;52.294;4.666;2022-12-18T00:11:08;39.67;31.61;54.25;;
66449;Laerm;56828;52.294;4.666;2022-12-18T00:11:20;39.50;32.54;55.01;;
66449;Laerm;56828;52.294;4.666;2022-12-18T00:11:33;40.12;32.16;52.20;;
66449;Laerm;56828;52.294;4.666;2022-12-18T00:11:44;36.17;32.60;44.42;;
66449;Laerm;56828;52.294;4.666;2022-12-18T00:11:57;45.77;33.54;59.33;;
66449;Laerm;56828;52.294;4.666;2022-12-18T00:12:08;43.35;33.28;56.23;;
66449;Laerm;56828;52.294;4.666;2022-12-18T00:12:21;34.88;32.69;37.97;;
66449;Laerm;56828;52.294;4.666;2022-12-18T00:12:31;34.89;32.85;39.59;;
66449;Laerm;56828;52.294;4.666;2022-12-18T00:12:41;35.63;32.74;41.99;;
66449;Laerm;56828;52.294;4.666;2022-12-18T00:12:51;38.39;33.47;52.23;;
66449;Laerm;56828;52.294;4.666;2022-12-18T00:13:02;43.74;33.57;55.62;;
66449;Laerm;56828;52.294;4.666;2022-12-18T00:13:12;36.06;33.88;40.55;;
66449;Laerm;56828;52.294;4.666;2022-12-18T00:13:25;36.90;34.20;47.90;;
66449;Laerm;56828;52.294;4.666;2022-12-18T00:13:37;37.16;33.86;48.81;;
66449;Laerm;56828;52.294;4.666;2022-12-18T00:13:50;39.28;33.48;50.51;;
66449;Laerm;56828;52.294;4.666;2022-12-18T00:14:01;37.32;33.30;45.30;;
66449;Laerm;56828;52.294;4.666;2022-12-18T00:14:12;36.01;32.54;40.90;;
66449;Laerm;56828;52.294;4.666;2022-12-18T00:14:22;37.50;33.63;42.16;;
66449;Laerm;56828;52.294;4.666;2022-12-18T00:14:33;35.49;33.51;38.21;;
66449;Laerm;56828;52.294;4.666;2022-12-18T00:14:43;36.05;34.32;38.25;;
66449;Laerm;56828;52.294;4.666;2022-12-18T00:14:53;38.05;35.74;40.06;;
66449;Laerm;56828;52.294;4.666;2022-12-18T00:15:04;37.28;34.70;44.42;;
66449;Laerm;56828;52.294;4.666;2022-12-18T00:15:18;37.95;35.64;40.86;;
66449;Laerm;56828;52.294;4.666;2022-12-18T00:15:28;36.72;33.07;41.95;;
66449;Laerm;56828;52.294;4.666;2022-12-18T00:15:39;34.39;31.95;38.69;;
66449;Laerm;56828;52.294;4.666;2022-12-18T00:15:49;35.19;33.16;38.75;;
66449;Laerm;56828;52.294;4.666;2022-12-18T00:16:02;37.37;33.69;41.02;;
66449;Laerm;56828;52.294;4.666;2022-12-18T00:16:14;41.36;35.60;45.99;;
66449;Laerm;56828;52.294;4.666;2022-12-18T00:16:25;37.27;32.24;42.68;;
66449;Laerm;56828;52.294;4.666;2022-12-18T00:16:35;35.11;32.21;40.19;;
66449;Laerm;56828;52.294;4.666;2022-12-18T00:16:46;35.18;32.80;38.27;;
66449;Laerm;56828;52.294;4.666;2022-12-18T00:16:57;34.85;32.75;37.15;;
66449;Laerm;56828;52.294;4.666;2022-12-18T00:17:10;34.00;32.24;37.48;;
66449;Laerm;56828;52.294;4.666;2022-12-18T00:17:21;34.31;32.47;36.07;;
66449;Laerm;56828;52.294;4.666;2022-12-18T00:17:44;35.67;32.19;50.20;;
66449;Laerm;56828;52.294;4.666;2022-12-18T00:17:57;37.09;31.52;48.24;;
66449;Laerm;56828;52.294;4.666;2022-12-18T00:18:13;39.29;32.74;53.79;;
66449;Laerm;56828;52.294;4.666;2022-12-18T00:18:23;35.08;32.39;42.66;;
66449;Laerm;56828;52.294;4.666;2022-12-18T00:18:34;34.60;32.67;37.50;;
66449;Laerm;56828;52.294;4.666;2022-12-18T00:19:04;33.97;31.64;37.11;;
66449;Laerm;56828;52.294;4.666;2022-12-18T00:19:15;37.28;31.87;46.73;;
66449;Laerm;56828;52.294;4.666;2022-12-18T00:19:28;35.55;32.76;45.18;;
66449;Laerm;56828;52.294;4.666;2022-12-18T00:19:38;35.90;32.87;40.22;;
66449;Laerm;56828;52.294;4.666;2022-12-18T00:19:49;34.75;33.11;38.56;;
66449;Laerm;56828;52.294;4.666;2022-12-18T00:19:59;34.36;32.80;36.30;;
66449;Laerm;56828;52.294;4.666;2022-12-18T00:20:09;41.31;33.14;53.33;;
66449;Laerm;56828;52.294;4.666;2022-12-18T00:20:22;35.93;32.64;43.30;;
66449;Laerm;56828;52.294;4.666;2022-12-18T00:20:36;35.05;31.66;43.15;;
66449;Laerm;56828;52.294;4.666;2022-12-18T00:20:46;34.67;32.32;40.93;;
66449;Laerm;56828;52.294;4.666;2022-12-18T00:21:05;35.03;32.19;38.80;;
66449;Laerm;56828;52.294;4.666;2022-12-18T00:21:16;34.43;32.46;36.95;;
66449;Laerm;56828;52.294;4.666;2022-12-18T00:21:30;37.80;33.18;41.43;;
66449;Laerm;56828;52.294;4.666;2022-12-18T00:21:43;37.91;33.52;43.03;;
66449;Laerm;56828;52.294;4.666;2022-12-18T00:21:53;35.94;32.60;43.53;;
66449;Laerm;56828;52.294;4.666;2022-12-18T00:22:04;36.03;32.91;53.12;;
66449;Laerm;56828;52.294;4.666;2022-12-18T00:22:17;37.22;33.37;45.81;;
66449;Laerm;56828;52.294;4.666;2022-12-18T00:22:27;35.41;33.16;39.32;;
66449;Laerm;56828;52.294;4.666;2022-12-18T00:22:37;35.36;33.31;38.34;;
66449;Laerm;56828;52.294;4.666;2022-12-18T00:22:47;36.67;34.27;41.43;;
66449;Laerm;56828;52.294;4.666;2022-12-18T00:22:58;40.23;34.61;49.86;;
66449;Laerm;56828;52.294;4.666;2022-12-18T00:23:11;41.96;33.98;59.63;;
66449;Laerm;56828;52.294;4.666;2022-12-18T00:23:21;37.77;34.44;46.03;;
66449;Laerm;56828;52.294;4.666;2022-12-18T00:23:32;39.67;34.47;51.54;;
66449;Laerm;56828;52.294;4.666;2022-12-18T00:23:46;41.22;33.43;54.84;;
66449;Laerm;56828;52.294;4.666;2022-12-18T00:23:57;36.39;34.47;40.67;;
66449;Laerm;56828;52.294;4.666;2022-12-18T00:24:11;36.51;33.27;46.58;;
66449;Laerm;56828;52.294;4.666;2022-12-18T00:24:25;35.91;33.62;38.25;;
66449;Laerm;56828;52.294;4.666;2022-12-18T00:24:35;36.09;33.73;42.45;;
66449;Laerm;56828;52.294;4.666;2022-12-18T00:24:45;36.16;32.77;41.85;;
66449;Laerm;56828;52.294;4.666;2022-12-18T00:24:55;35.22;32.69;44.29;;
66449;Laerm;56828;52.294;4.666;2022-12-18T00:25:06;40.76;33.85;53.43;;
66449;Laerm;56828;52.294;4.666;2022-12-18T00:25:16;39.42;34.52;46.96;;
66449;Laerm;56828;52.294;4.666;2022-12-18T00:25:29;35.80;33.16;41.21;;
66449;Laerm;56828;52.294;4.666;2022-12-18T00:25:42;36.46;32.31;50.29;;
66449;Laerm;56828;52.294;4.666;2022-12-18T00:25:53;42.14;33.72;51.76;;
66449;Laerm;56828;52.294;4.666;2022-12-18T00:26:08;36.46;33.38;44.78;;
66449;Laerm;56828;52.294;4.666;2022-12-18T00:26:23;36.36;33.51;44.87;;
66449;Laerm;56828;52.294;4.666;2022-12-18T00:26:34;35.64;32.53;45.11;;
66449;Laerm;56828;52.294;4.666;2022-12-18T00:26:45;38.19;32.44;53.30;;
66449;Laerm;56828;52.294;4.666;2022-12-18T00:26:58;39.19;32.58;49.75;;
66449;Laerm;56828;52.294;4.666;2022-12-18T00:27:08;36.33;32.67;44.57;;
66449;Laerm;56828;52.294;4.666;2022-12-18T00:27:19;36.40;32.59;43.31;;
66449;Laerm;56828;52.294;4.666;2022-12-18T00:27:29;35.27;32.25;41.08;;
66449;Laerm;56828;52.294;4.666;2022-12-18T00:27:39;34.40;32.42;36.54;;
66449;Laerm;56828;52.294;4.666;2022-12-18T00:27:50;34.09;31.89;37.29;;
66449;Laerm;56828;52.294;4.666;2022-12-18T00:28:00;34.05;31.66;40.53;;
66449;Laerm;56828;52.294;4.666;2022-12-18T00:28:11;33.78;31.62;38.91;;
66449;Laerm;56828;52.294;4.666;2022-12-18T00:28:22;33.59;31.79;35.63;;
66449;Laerm;56828;52.294;4.666;2022-12-18T00:28:32;33.13;31.55;34.86;;
66449;Laerm;56828;52.294;4.666;2022-12-18T00:28:42;33.80;31.88;36.98;;
66449;Laerm;56828;52.294;4.666;2022-12-18T00:28:53;33.37;31.34;36.50;;
66449;Laerm;56828;52.294;4.666;2022-12-18T00:29:06;35.71;31.69;41.29;;
66449;Laerm;56828;52.294;4.666;2022-12-18T00:29:17;35.74;32.93;41.51;;
66449;Laerm;56828;52.294;4.666;2022-12-18T00:29:27;35.26;33.00;39.33;;
66449;Laerm;56828;52.294;4.666;2022-12-18T00:29:43;36.41;34.43;40.17;;
66449;Laerm;56828;52.294;4.666;2022-12-18T00:29:53;39.60;35.92;43.05;;
66449;Laerm;56828;52.294;4.666;2022-12-18T00:30:03;40.44;36.34;43.51;;
66449;Laerm;56828;52.294;4.666;2022-12-18T00:30:24;39.46;33.77;48.02;;
66449;Laerm;56828;52.294;4.666;2022-12-18T00:30:34;38.32;34.16;47.73;;
66449;Laerm;56828;52.294;4.666;2022-12-18T00:30:58;35.76;33.64;40.88;;
66449;Laerm;56828;52.294;4.666;2022-12-18T00:31:13;39.62;35.91;44.06;;
66449;Laerm;56828;52.294;4.666;2022-12-18T00:31:24;40.91;37.67;44.68;;
66449;Laerm;56828;52.294;4.666;2022-12-18T00:31:36;37.88;34.33;43.02;;
66449;Laerm;56828;52.294;4.666;2022-12-18T00:31:47;37.51;35.38;41.96;;
66449;Laerm;56828;52.294;4.666;2022-12-18T00:32:00;37.99;35.27;40.39;;
66449;Laerm;56828;52.294;4.666;2022-12-18T00:32:10;37.13;34.05;39.92;;
66449;Laerm;56828;52.294;4.666;2022-12-18T00:32:20;36.55;34.22;38.88;;
66449;Laerm;56828;52.294;4.666;2022-12-18T00:32:32;37.57;33.85;41.92;;
66449;Laerm;56828;52.294;4.666;2022-12-18T00:32:42;39.95;33.58;54.77;;
66449;Laerm;56828;52.294;4.666;2022-12-18T00:32:53;39.57;34.00;51.55;;
66449;Laerm;56828;52.294;4.666;2022-12-18T00:33:03;39.09;34.24;49.98;;
66449;Laerm;56828;52.294;4.666;2022-12-18T00:33:13;35.63;32.73;42.72;;
66449;Laerm;56828;52.294;4.666;2022-12-18T00:33:23;34.58;32.52;38.81;;
66449;Laerm;56828;52.294;4.666;2022-12-18T00:33:34;38.62;34.11;46.78;;
66449;Laerm;56828;52.294;4.666;2022-12-18T00:33:44;38.05;35.13;43.90;;
66449;Laerm;56828;52.294;4.666;2022-12-18T00:33:55;38.50;33.96;52.70;;
66449;Laerm;56828;52.294;4.666;2022-12-18T00:34:06;41.60;36.92;48.93;;
66449;Laerm;56828;52.294;4.666;2022-12-18T00:34:16;41.71;37.26;45.95;;
66449;Laerm;56828;52.294;4.666;2022-12-18T00:34:26;36.06;32.48;39.81;;
66449;Laerm;56828;52.294;4.666;2022-12-18T00:34:37;33.57;31.45;36.77;;
66449;Laerm;56828;52.294;4.666;2022-12-18T00:34:47;36.17;32.36;49.60;;
66449;Laerm;56828;52.294;4.666;2022-12-18T00:34:58;34.00;31.92;37.92;;
66449;Laerm;56828;52.294;4.666;2022-12-18T00:35:08;35.00;31.63;38.18;;
66449;Laerm;56828;52.294;4.666;2022-12-18T00:35:19;36.58;33.26;44.73;;
66449;Laerm;56828;52.294;4.666;2022-12-18T00:35:29;34.63;32.27;39.57;;
66449;Laerm;56828;52.294;4.666;2022-12-18T00:35:39;37.51;33.73;51.70;;
66449;Laerm;56828;52.294;4.666;2022-12-18T00:35:50;37.83;34.42;41.93;;
66449;Laerm;56828;52.294;4.666;2022-12-18T00:36:01;36.29;34.09;40.84;;
66449;Laerm;56828;52.294;4.666;2022-12-18T00:36:23;38.29;35.40;46.32;;
66449;Laerm;56828;52.294;4.666;2022-12-18T00:36:34;40.03;36.60;44.45;;
66449;Laerm;56828;52.294;4.666;2022-12-18T00:36:46;43.24;38.92;48.44;;
66449;Laerm;56828;52.294;4.666;2022-12-18T00:36:59;38.56;34.52;46.58;;
66449;Laerm;56828;52.294;4.666;2022-12-18T00:37:09;39.79;33.73;55.72;;
66449;Laerm;56828;52.294;4.666;2022-12-18T00:37:20;35.99;33.33;43.54;;
66449;Laerm;56828;52.294;4.666;2022-12-18T00:37:30;42.42;34.00;59.17;;
66449;Laerm;56828;52.294;4.666;2022-12-18T00:37:40;39.09;33.92;50.73;;
66449;Laerm;56828;52.294;4.666;2022-12-18T00:37:51;35.12;33.12;40.64;;
66449;Laerm;56828;52.294;4.666;2022-12-18T00:38:07;34.88;32.32;40.47;;
66449;Laerm;56828;52.294;4.666;2022-12-18T00:38:17;36.43;33.52;49.17;;
66449;Laerm;56828;52.294;4.666;2022-12-18T00:38:27;35.41;33.43;38.59;;
66449;Laerm;56828;52.294;4.666;2022-12-18T00:38:38;35.22;32.43;40.93;;
66449;Laerm;56828;52.294;4.666;2022-12-18T00:38:48;35.10;32.74;42.70;;
66449;Laerm;56828;52.294;4.666;2022-12-18T00:38:59;35.64;32.36;42.46;;
66449;Laerm;56828;52.294;4.666;2022-12-18T00:39:14;33.39;31.62;35.61;;
66449;Laerm;56828;52.294;4.666;2022-12-18T00:39:27;34.49;32.13;42.93;;
66449;Laerm;56828;52.294;4.666;2022-12-18T00:39:38;35.34;32.95;43.93;;
66449;Laerm;56828;52.294;4.666;2022-12-18T00:39:51;34.36;32.46;36.09;;
66449;Laerm;56828;52.294;4.666;2022-12-18T00:40:04;34.76;32.43;37.05;;
66449;Laerm;56828;52.294;4.666;2022-12-18T00:40:15;34.93;32.57;38.15;;
66449;Laerm;56828;52.294;4.666;2022-12-18T00:40:25;37.05;34.54;43.10;;
66449;Laerm;56828;52.294;4.666;2022-12-18T00:40:35;34.85;32.61;38.70;;
66449;Laerm;56828;52.294;4.666;2022-12-18T00:40:45;33.92;32.12;35.95;;
66449;Laerm;56828;52.294;4.666;2022-12-18T00:40:56;35.12;32.80;47.37;;
66449;Laerm;56828;52.294;4.666;2022-12-18T00:41:06;43.04;34.01;59.96;;
66449;Laerm;56828;52.294;4.666;2022-12-18T00:41:20;48.40;34.08;62.62;;
66449;Laerm;56828;52.294;4.666;2022-12-18T00:41:49;46.69;32.50;66.84;;
66449;Laerm;56828;52.294;4.666;2022-12-18T00:42:21;36.34;32.71;45.33;;
66449;Laerm;56828;52.294;4.666;2022-12-18T00:42:50;33.87;31.87;38.89;;
66449;Laerm;56828;52.294;4.666;2022-12-18T00:43:09;34.65;32.44;37.04;;
66449;Laerm;56828;52.294;4.666;2022-12-18T00:43:19;36.64;32.83;54.93;;
66449;Laerm;56828;52.294;4.666;2022-12-18T00:43:30;37.54;32.67;49.48;;
66449;Laerm;56828;52.294;4.666;2022-12-18T00:43:40;42.80;33.58;56.89;;
66449;Laerm;56828;52.294;4.666;2022-12-18T00:43:50;41.98;33.32;59.21;;
66449;Laerm;56828;52.294;4.666;2022-12-18T00:44:01;37.48;32.13;48.94;;
66449;Laerm;56828;52.294;4.666;2022-12-18T00:44:12;39.92;33.27;51.91;;
66449;Laerm;56828;52.294;4.666;2022-12-18T00:44:25;44.85;35.54;59.13;;
66449;Laerm;56828;52.294;4.666;2022-12-18T00:44:35;41.76;35.65;49.67;;
66449;Laerm;56828;52.294;4.666;2022-12-18T00:44:45;34.90;32.18;39.54;;
66449;Laerm;56828;52.294;4.666;2022-12-18T00:44:56;35.05;33.59;37.22;;
66449;Laerm;56828;52.294;4.666;2022-12-18T00:45:06;34.37;32.35;39.17;;
66449;Laerm;56828;52.294;4.666;2022-12-18T00:45:16;33.71;31.91;36.09;;
66449;Laerm;56828;52.294;4.666;2022-12-18T00:45:28;33.99;32.22;35.98;;
66449;Laerm;56828;52.294;4.666;2022-12-18T00:45:41;35.22;32.99;37.75;;
66449;Laerm;56828;52.294;4.666;2022-12-18T00:45:51;34.38;32.42;37.09;;
66449;Laerm;56828;52.294;4.666;2022-12-18T00:46:02;39.50;32.68;48.94;;
66449;Laerm;56828;52.294;4.666;2022-12-18T00:46:12;40.03;35.75;50.62;;
66449;Laerm;56828;52.294;4.666;2022-12-18T00:46:25;35.51;32.91;41.56;;
66449;Laerm;56828;52.294;4.666;2022-12-18T00:46:39;36.07;33.06;41.94;;
66449;Laerm;56828;52.294;4.666;2022-12-18T00:46:49;37.73;35.68;40.35;;
66449;Laerm;56828;52.294;4.666;2022-12-18T00:46:59;41.23;36.45;44.39;;
66449;Laerm;56828;52.294;4.666;2022-12-18T00:47:10;43.03;39.67;45.19;;
66449;Laerm;56828;52.294;4.666;2022-12-18T00:47:20;43.66;36.76;48.54;;
66449;Laerm;56828;52.294;4.666;2022-12-18T00:47:30;43.03;34.72;54.86;;
66449;Laerm;56828;52.294;4.666;2022-12-18T00:47:40;48.21;33.07;59.91;;
66449;Laerm;56828;52.294;4.666;2022-12-18T00:47:51;37.93;33.23;45.51;;
66449;Laerm;56828;52.294;4.666;2022-12-18T00:48:01;34.91;32.21;43.21;;
66449;Laerm;56828;52.294;4.666;2022-12-18T00:48:15;35.91;32.43;49.15;;
66449;Laerm;56828;52.294;4.666;2022-12-18T00:48:25;35.26;32.69;45.46;;
66449;Laerm;56828;52.294;4.666;2022-12-18T00:48:35;38.36;33.38;46.00;;
66449;Laerm;56828;52.294;4.666;2022-12-18T00:48:45;39.42;35.40;44.81;;
66449;Laerm;56828;52.294;4.666;2022-12-18T00:48:56;39.27;36.57;42.64;;
66449;Laerm;56828;52.294;4.666;2022-12-18T00:49:06;43.46;38.11;47.26;;
66449;Laerm;56828;52.294;4.666;2022-12-18T00:49:17;38.18;32.08;43.59;;
66449;Laerm;56828;52.294;4.666;2022-12-18T00:49:28;36.56;33.48;42.00;;
66449;Laerm;56828;52.294;4.666;2022-12-18T00:49:38;36.16;33.93;39.55;;
66449;Laerm;56828;52.294;4.666;2022-12-18T00:49:48;36.03;33.81;38.50;;
66449;Laerm;56828;52.294;4.666;2022-12-18T00:49:58;37.20;34.01;47.48;;
66449;Laerm;56828;52.294;4.666;2022-12-18T00:50:09;37.52;34.19;43.85;;
66449;Laerm;56828;52.294;4.666;2022-12-18T00:50:20;35.05;32.67;39.93;;
66449;Laerm;56828;52.294;4.666;2022-12-18T00:50:30;35.68;32.68;40.93;;
66449;Laerm;56828;52.294;4.666;2022-12-18T00:50:41;34.85;32.19;38.51;;
66449;Laerm;56828;52.294;4.666;2022-12-18T00:50:51;34.14;31.98;41.29;;
66449;Laerm;56828;52.294;4.666;2022-12-18T00:51:01;36.64;32.19;49.88;;
66449;Laerm;56828;52.294;4.666;2022-12-18T00:51:12;33.50;31.88;35.16;;
66449;Laerm;56828;52.294;4.666;2022-12-18T00:51:22;33.67;31.27;43.28;;
66449;Laerm;56828;52.294;4.666;2022-12-18T00:51:33;33.74;31.46;41.45;;
66449;Laerm;56828;52.294;4.666;2022-12-18T00:51:43;34.33;31.86;37.37;;
66449;Laerm;56828;52.294;4.666;2022-12-18T00:51:56;36.61;32.94;40.44;;
66449;Laerm;56828;52.294;4.666;2022-12-18T00:52:06;38.53;35.07;46.74;;
66449;Laerm;56828;52.294;4.666;2022-12-18T00:52:17;40.89;36.73;49.05;;
66449;Laerm;56828;52.294;4.666;2022-12-18T00:52:27;35.76;31.94;39.65;;
66449;Laerm;56828;52.294;4.666;2022-12-18T00:52:40;33.81;31.38;39.10;;
66449;Laerm;56828;52.294;4.666;2022-12-18T00:52:51;33.30;30.81;39.43;;
66449;Laerm;56828;52.294;4.666;2022-12-18T00:53:01;33.57;31.64;35.40;;
66449;Laerm;56828;52.294;4.666;2022-12-18T00:53:11;36.52;33.83;39.79;;
66449;Laerm;56828;52.294;4.666;2022-12-18T00:53:24;40.86;37.33;43.76;;
66449;Laerm;56828;52.294;4.666;2022-12-18T00:53:34;39.07;36.16;45.55;;
66449;Laerm;56828;52.294;4.666;2022-12-18T00:53:44;37.75;35.03;42.88;;
66449;Laerm;56828;52.294;4.666;2022-12-18T00:53:55;35.46;33.65;38.13;;
66449;Laerm;56828;52.294;4.666;2022-12-18T00:54:05;37.26;33.14;47.66;;
66449;Laerm;56828;52.294;4.666;2022-12-18T00:54:15;34.78;32.66;40.46;;
66449;Laerm;56828;52.294;4.666;2022-12-18T00:54:26;35.31;32.38;44.61;;
66449;Laerm;56828;52.294;4.666;2022-12-18T00:54:36;36.15;33.10;46.44;;
66449;Laerm;56828;52.294;4.666;2022-12-18T00:54:46;34.11;32.16;37.66;;
66449;Laerm;56828;52.294;4.666;2022-12-18T00:55:00;34.58;32.80;37.12;;
66449;Laerm;56828;52.294;4.666;2022-12-18T00:55:20;36.30;32.67;44.63;;
66449;Laerm;56828;52.294;4.666;2022-12-18T00:55:30;35.31;33.35;37.50;;
66449;Laerm;56828;52.294;4.666;2022-12-18T00:55:40;38.48;34.10;44.66;;
66449;Laerm;56828;52.294;4.666;2022-12-18T00:55:51;39.69;34.99;48.55;;
66449;Laerm;56828;52.294;4.666;2022-12-18T00:56:01;46.41;36.07;53.96;;
66449;Laerm;56828;52.294;4.666;2022-12-18T00:56:12;38.20;35.07;41.44;;
66449;Laerm;56828;52.294;4.666;2022-12-18T00:56:25;38.81;32.65;52.85;;
66449;Laerm;56828;52.294;4.666;2022-12-18T00:56:36;35.04;33.28;39.51;;
66449;Laerm;56828;52.294;4.666;2022-12-18T00:56:47;35.59;32.18;44.74;;
66449;Laerm;56828;52.294;4.666;2022-12-18T00:56:58;36.84;33.34;45.41;;
66449;Laerm;56828;52.294;4.666;2022-12-18T00:57:08;37.93;34.23;41.60;;
66449;Laerm;56828;52.294;4.666;2022-12-18T00:57:18;35.66;32.83;40.79;;
66449;Laerm;56828;52.294;4.666;2022-12-18T00:57:29;37.54;34.12;41.21;;
66449;Laerm;56828;52.294;4.666;2022-12-18T00:57:39;37.41;34.01;42.14;;
66449;Laerm;56828;52.294;4.666;2022-12-18T00:57:52;36.43;33.14;44.83;;
66449;Laerm;56828;52.294;4.666;2022-12-18T00:58:03;37.02;33.33;46.61;;
66449;Laerm;56828;52.294;4.666;2022-12-18T00:58:14;36.70;32.94;49.02;;
66449;Laerm;56828;52.294;4.666;2022-12-18T00:58:24;37.81;33.90;45.68;;
66449;Laerm;56828;52.294;4.666;2022-12-18T00:58:35;40.34;34.13;47.77;;
66449;Laerm;56828;52.294;4.666;2022-12-18T00:58:45;42.01;36.98;48.94;;
66449;Laerm;56828;52.294;4.666;2022-12-18T00:59:01;41.88;34.07;47.51;;
66449;Laerm;56828;52.294;4.666;2022-12-18T00:59:14;36.10;32.34;42.61;;
66449;Laerm;56828;52.294;4.666;2022-12-18T00:59:24;34.47;31.41;45.63;;
66449;Laerm;56828;52.294;4.666;2022-12-18T00:59:35;34.36;31.50;37.97;;
66449;Laerm;56828;52.294;4.666;2022-12-18T00:59:45;37.00;32.81;50.35;;
66449;Laerm;56828;52.294;4.666;2022-12-18T00:59:55;34.07;31.95;36.15;;
66449;Laerm;56828;52.294;4.666;2022-12-18T01:00:06;34.87;32.33;37.61;;
66449;Laerm;56828;52.294;4.666;2022-12-18T01:00:19;34.83;32.84;37.11;;
66449;Laerm;56828;52.294;4.666;2022-12-18T01:00:30;33.99;31.61;40.28;;
66449;Laerm;56828;52.294;4.666;2022-12-18T01:00:40;32.96;31.30;38.09;;
66449;Laerm;56828;52.294;4.666;2022-12-18T01:00:51;39.81;31.87;52.93;;
66449;Laerm;56828;52.294;4.666;2022-12-18T01:01:03;38.90;34.67;44.13;;
66449;Laerm;56828;52.294;4.666;2022-12-18T01:01:13;37.14;32.94;50.36;;
66449;Laerm;56828;52.294;4.666;2022-12-18T01:01:24;33.99;31.79;36.23;;
66449;Laerm;56828;52.294;4.666;2022-12-18T01:01:34;33.91;31.94;38.01;;
66449;Laerm;56828;52.294;4.666;2022-12-18T01:01:45;33.79;31.14;36.22;;
66449;Laerm;56828;52.294;4.666;2022-12-18T01:01:55;35.14;33.52;37.30;;
66449;Laerm;56828;52.294;4.666;2022-12-18T01:02:05;35.81;32.45;45.89;;
66449;Laerm;56828;52.294;4.666;2022-12-18T01:02:16;34.62;32.62;37.44;;
66449;Laerm;56828;52.294;4.666;2022-12-18T01:02:26;35.08;31.86;41.60;;
66449;Laerm;56828;52.294;4.666;2022-12-18T01:02:36;37.18;33.14;45.12;;
66449;Laerm;56828;52.294;4.666;2022-12-18T01:02:46;34.73;32.36;41.31;;
66449;Laerm;56828;52.294;4.666;2022-12-18T01:02:57;34.40;32.29;36.63;;
66449;Laerm;56828;52.294;4.666;2022-12-18T01:03:12;40.17;33.45;44.81;;
66449;Laerm;56828;52.294;4.666;2022-12-18T01:03:23;42.17;37.45;46.32;;
66449;Laerm;56828;52.294;4.666;2022-12-18T01:03:33;42.52;38.35;46.68;;
66449;Laerm;56828;52.294;4.666;2022-12-18T01:03:43;43.01;34.22;52.14;;
66449;Laerm;56828;52.294;4.666;2022-12-18T01:03:55;36.19;32.54;40.06;;
66449;Laerm;56828;52.294;4.666;2022-12-18T01:04:05;33.03;31.21;35.31;;
66449;Laerm;56828;52.294;4.666;2022-12-18T01:04:15;32.75;31.27;34.22;;
66449;Laerm;56828;52.294;4.666;2022-12-18T01:04:26;34.34;31.63;36.78;;
66449;Laerm;56828;52.294;4.666;2022-12-18T01:04:36;35.90;33.21;45.83;;
66449;Laerm;56828;52.294;4.666;2022-12-18T01:04:49;38.19;33.04;52.36;;
66449;Laerm;56828;52.294;4.666;2022-12-18T01:05:00;36.15;32.85;44.48;;
66449;Laerm;56828;52.294;4.666;2022-12-18T01:05:11;36.26;33.00;42.14;;